Aérodrome :
LOGIN :

S'inscrire | Disclaimer

   EN    FR    IT 

 










Légende :    VFR   VFR Marginal   IFR   IFR Intensif   IFR Très Intensif
Visi : 
Plafond : 
>= 8 km
>= 3000ft
5 à 8 km
1000 à 3000 ft
1500m à 5 km
500 à 1000 ft
800 à 1500m
200 à 500 ft
< 800m
< 200 ft
Symboles :   Orages  Brouillard  Fortes neiges  Fortes précipitations  Vent > 20 kt
SIGMETs :   Divers  Orages  Givrage  Turbulence  Onde Orograph.  Cendres Volcan.






- Altitude de l'aérodrome : 256 ft
- Code IATA : CFR


LFRK - Caen

DERNIER METAR :
  • 190530Z AUTO 21006KT CAVOK 01/00 Q1017 NOSIG

METARs EXPIRÉS :
  • 190500Z AUTO 22005KT CAVOK 01/M00 Q1017
  • 190430Z AUTO VRB02KT CAVOK 01/01 Q1017
  • 190400Z AUTO 22003KT 190V260 CAVOK 01/00 Q1017
  • 190330Z AUTO 22004KT 160V260 CAVOK 02/01 Q1017
  • 190300Z AUTO 24006KT CAVOK 03/02 Q1017

TAF TAF LFRK
Valide du 19 à 06h jusqu'au 19 à 15h UTC


190500Z 1906/1915 19004KT CAVOK
BECMG 1906/1909 18006KT
Météo : +33 2 31 26 68 11



MET'MAP, la Météo Aéronautique d'un coup d'oeil ! - Copyright ORBIFLY Décembre 2007 - Disclaimer

ORBIFLY MET'MAP TEAM :

Programmation & Développement : Alexandra Zaïnal
Conception & Développement : Baudouin d'Aumeries
Co-Programmation & Développement : Marc-Olivier Méhu
Soutien technique & logistique : Manuel Goepfert

Contact : metmap@orbifly.com




SOURCES & CREDITS :

   NOAA